Time;durP1;ratioP1;P1;durP2;ratioP2;P2;SDS_P1;SDS_P2;PMS_P1;PMS_P2;Temp;Humidity;BMP_temperature;BMP_pressure;BME280_temperature;BME280_humidity;BME280_pressure;Samples;Min_cycle;Max_cycle;Signal;HPM_P1;HPM_P2
2023/12/04 00:00:47;;;;;;;31.35;15.63;;;-0.10;99.90;;;;;;4996145;28;20430;-86
2023/12/04 00:03:12;;;;;;;48.25;18.27;;;-0.30;99.90;;;;;;4978460;28;20072;-84
2023/12/04 00:05:38;;;;;;;34.83;17.50;;;-0.20;99.90;;;;;;4962637;28;20112;-85
2023/12/04 00:08:04;;;;;;;38.05;17.55;;;0.10;99.90;;;;;;4978373;28;20399;-84
2023/12/04 00:10:30;;;;;;;33.45;16.95;;;0.00;99.90;;;;;;4986988;28;20056;-85
2023/12/04 00:12:55;;;;;;;35.78;18.10;;;0.60;99.90;;;;;;4997464;28;20042;-85
2023/12/04 00:15:21;;;;;;;41.47;17.85;;;-0.20;99.90;;;;;;4997789;28;20461;-86
2023/12/04 00:17:47;;;;;;;35.58;17.33;;;0.70;99.90;;;;;;5015291;28;20046;-85
2023/12/04 00:20:13;;;;;;;36.10;18.33;;;-0.30;99.90;;;;;;5012478;28;20557;-85
2023/12/04 00:22:39;;;;;;;36.17;18.00;;;-0.20;99.90;;;;;;4977959;28;20053;-86
2023/12/04 00:25:07;;;;;;;37.58;19.27;;;-0.30;99.90;;;;;;4961969;28;20042;-85
2023/12/04 00:27:32;;;;;;;32.85;16.95;;;-0.50;99.90;;;;;;4962301;28;20057;-86
2023/12/04 00:29:58;;;;;;;32.60;17.52;;;-0.50;99.90;;;;;;4978390;28;20046;-88
2023/12/04 00:32:24;;;;;;;33.53;17.85;;;-0.30;99.90;;;;;;4961732;28;20046;-90
2023/12/04 00:34:50;;;;;;;38.72;18.80;;;0.90;99.90;;;;;;4961326;28;20046;-86
2023/12/04 00:37:15;;;;;;;38.92;18.35;;;0.60;99.90;;;;;;4977469;28;20053;-88
2023/12/04 00:39:41;;;;;;;34.30;17.83;;;-0.30;99.90;;;;;;4962716;28;20058;-88
2023/12/04 00:42:07;;;;;;;33.13;17.65;;;-0.30;99.90;;;;;;4977953;28;20131;-88
2023/12/04 00:44:32;;;;;;;37.53;18.48;;;0.40;99.90;;;;;;4995562;28;20105;-88
2023/12/04 00:46:58;;;;;;;35.40;17.85;;;-0.30;99.90;;;;;;4977744;28;20042;-87
2023/12/04 00:49:24;;;;;;;37.75;18.85;;;-0.20;99.90;;;;;;4995056;28;20053;-86
2023/12/04 00:51:50;;;;;;;39.92;18.55;;;-0.20;99.90;;;;;;4995245;28;20121;-88
2023/12/04 00:54:16;;;;;;;36.83;18.55;;;0.60;99.90;;;;;;4961365;28;20073;-87
2023/12/04 00:56:41;;;;;;;32.53;16.48;;;-0.20;99.90;;;;;;4994770;28;20097;-86
2023/12/04 00:59:09;;;;;;;35.55;17.70;;;-0.20;99.90;;;;;;4977537;28;20505;-90
2023/12/04 01:01:36;;;;;;;43.03;20.27;;;-0.30;99.90;;;;;;4961586;28;20508;-88
2023/12/04 01:04:01;;;;;;;35.28;17.65;;;0.60;99.90;;;;;;4977558;28;20058;-90
2023/12/04 01:06:27;;;;;;;32.92;17.25;;;-0.30;99.90;;;;;;4977558;28;20048;-90
2023/12/04 01:08:54;;;;;;;36.20;18.50;;;-0.20;99.90;;;;;;4958499;28;20046;-86
2023/12/04 01:11:19;;;;;;;36.63;18.40;;;0.60;99.90;;;;;;4977894;28;20497;-87
2023/12/04 01:13:46;;;;;;;35.60;17.25;;;0.50;99.90;;;;;;4961286;28;20107;-91
2023/12/04 01:16:11;;;;;;;38.67;17.95;;;-0.30;99.90;;;;;;4977284;28;20074;-91
2023/12/04 01:18:37;;;;;;;35.13;17.63;;;-0.20;99.90;;;;;;4977508;28;20077;-89
2023/12/04 01:21:03;;;;;;;37.85;18.55;;;0.10;99.90;;;;;;4977106;28;20050;-88
2023/12/04 01:23:29;;;;;;;31.40;16.67;;;-0.30;99.90;;;;;;4976446;28;20086;-90
2023/12/04 01:25:55;;;;;;;36.25;17.48;;;-0.40;99.90;;;;;;4959639;28;20045;-90
2023/12/04 01:28:20;;;;;;;32.65;16.25;;;0.90;99.90;;;;;;4976254;28;20089;-89
2023/12/04 01:30:46;;;;;;;33.45;17.00;;;-0.10;99.90;;;;;;4976209;28;20109;-90
2023/12/04 01:33:12;;;;;;;35.25;17.27;;;0.00;99.90;;;;;;4972501;28;20392;-87
2023/12/04 01:35:37;;;;;;;34.30;16.25;;;0.60;99.90;;;;;;4973561;28;20129;-88
2023/12/04 01:38:03;;;;;;;33.28;16.83;;;-0.30;99.90;;;;;;4973201;28;20061;-89
2023/12/04 01:40:29;;;;;;;33.25;16.85;;;-0.30;99.90;;;;;;4974331;28;20049;-91
2023/12/04 01:42:54;;;;;;;31.83;16.33;;;-0.30;99.90;;;;;;4973871;28;20128;-90
2023/12/04 01:45:20;;;;;;;34.45;16.58;;;-0.30;99.90;;;;;;4973591;28;20043;-85
2023/12/04 01:47:46;;;;;;;34.58;16.65;;;0.20;99.90;;;;;;4985643;28;20052;-86
2023/12/04 01:50:14;;;;;;;34.92;17.98;;;-0.30;99.90;;;;;;4993241;28;20050;-87
2023/12/04 01:52:40;;;;;;;42.92;17.40;;;1.80;99.90;;;;;;4972950;28;20135;-84
2023/12/04 01:55:08;;;;;;;33.85;16.60;;;0.20;99.90;;;;;;4960794;28;20496;-86
2023/12/04 01:57:34;;;;;;;31.92;16.02;;;-0.30;99.90;;;;;;4956129;28;20113;-87
2023/12/04 02:00:00;;;;;;;30.20;16.42;;;1.30;99.90;;;;;;4956191;28;20140;-86
2023/12/04 02:02:27;;;;;;;34.58;16.58;;;0.00;99.90;;;;;;4975077;28;20073;-86
2023/12/04 02:04:55;;;;;;;31.58;16.15;;;-0.10;99.90;;;;;;4959370;28;20046;-86
2023/12/04 02:07:21;;;;;;;29.92;17.17;;;-0.30;99.90;;;;;;4974793;28;20078;-86
2023/12/04 02:09:47;;;;;;;31.70;16.55;;;1.20;99.90;;;;;;4975349;28;20078;-86
2023/12/04 02:12:12;;;;;;;32.72;17.38;;;-0.20;99.90;;;;;;4974378;28;20038;-86
2023/12/04 02:14:38;;;;;;;33.20;16.42;;;0.70;99.90;;;;;;4971915;28;20105;-85
2023/12/04 02:17:06;;;;;;;37.67;17.65;;;-0.40;99.90;;;;;;4971972;28;20503;-86
2023/12/04 02:19:32;;;;;;;35.15;16.77;;;-0.30;99.90;;;;;;4973615;28;20443;-85
2023/12/04 02:21:58;;;;;;;33.35;17.63;;;0.80;99.90;;;;;;4950989;28;1122309;-85
2023/12/04 02:24:24;;;;;;;35.17;16.42;;;0.00;99.90;;;;;;4991953;28;20054;-85
2023/12/04 02:26:58;;;;;;;29.20;16.08;;;-0.30;99.90;;;;;;4992004;28;20124;-85
2023/12/04 02:29:31;;;;;;;35.08;17.10;;;1.20;99.90;;;;;;4992395;28;20038;-86
2023/12/04 02:31:58;;;;;;;33.33;16.60;;;0.60;99.90;;;;;;4991714;28;20054;-86
2023/12/04 02:34:24;;;;;;;36.15;17.85;;;0.40;99.90;;;;;;4993871;28;20418;-87
2023/12/04 02:36:51;;;;;;;31.08;16.48;;;1.40;99.90;;;;;;4995213;28;20546;-86
2023/12/04 02:39:17;;;;;;;31.98;16.05;;;-0.30;99.90;;;;;;4991476;28;20076;-86
2023/12/04 02:41:43;;;;;;;32.38;16.27;;;-0.20;99.90;;;;;;4994446;28;20454;-87
2023/12/04 02:44:08;;;;;;;31.25;16.52;;;-0.20;99.90;;;;;;4995199;28;20184;-85
2023/12/04 02:46:35;;;;;;;36.63;18.13;;;-0.10;99.90;;;;;;4995326;28;20041;-86
2023/12/04 02:49:00;;;;;;;35.75;18.02;;;0.50;99.90;;;;;;4995159;28;20053;-86
2023/12/04 02:51:26;;;;;;;38.72;17.60;;;0.70;99.90;;;;;;4995248;28;20050;-86
2023/12/04 02:53:52;;;;;;;31.05;16.52;;;-0.30;99.90;;;;;;4994987;28;20046;-86
2023/12/04 02:56:17;;;;;;;34.22;17.33;;;-0.30;99.90;;;;;;4997082;28;20054;-86
2023/12/04 02:58:43;;;;;;;32.53;16.17;;;0.10;99.90;;;;;;4998854;28;20495;-85
2023/12/04 03:01:09;;;;;;;31.38;16.05;;;2.00;99.90;;;;;;4999586;28;20054;-85
2023/12/04 03:03:35;;;;;;;34.38;17.05;;;-0.40;99.90;;;;;;5016748;28;20038;-86
2023/12/04 03:06:01;;;;;;;32.65;16.80;;;0.10;99.90;;;;;;4998511;28;20376;-87
2023/12/04 03:08:26;;;;;;;34.10;17.05;;;-0.40;99.90;;;;;;5016594;28;20486;-86
2023/12/04 03:10:52;;;;;;;32.75;15.88;;;-0.10;99.90;;;;;;5015946;28;20048;-86
2023/12/04 03:13:17;;;;;;;30.95;16.45;;;1.20;99.90;;;;;;4998613;28;20046;-86
2023/12/04 03:15:43;;;;;;;33.08;16.65;;;-0.20;99.90;;;;;;4999161;28;20034;-86
2023/12/04 03:18:09;;;;;;;33.22;16.48;;;0.00;99.90;;;;;;4998468;28;20111;-86
2023/12/04 03:20:35;;;;;;;31.77;16.52;;;0.60;99.90;;;;;;5014222;28;20057;-86
2023/12/04 03:23:00;;;;;;;32.97;16.20;;;-0.20;99.90;;;;;;4978925;28;20112;-86
2023/12/04 03:25:26;;;;;;;30.20;15.73;;;-0.30;99.90;;;;;;4996297;28;20431;-86
2023/12/04 03:27:52;;;;;;;33.25;17.00;;;0.20;99.90;;;;;;4996455;28;20046;-86
2023/12/04 03:30:17;;;;;;;32.17;16.20;;;0.60;99.90;;;;;;4978883;28;20049;-86
2023/12/04 03:32:43;;;;;;;35.17;16.95;;;-0.20;99.90;;;;;;4962422;28;20181;-86
2023/12/04 03:35:09;;;;;;;29.08;16.42;;;-0.20;99.90;;;;;;4979142;28;20496;-87
2023/12/04 03:37:36;;;;;;;31.90;16.25;;;-0.20;99.90;;;;;;4978735;28;20049;-86
2023/12/04 03:40:01;;;;;;;29.38;14.93;;;-0.10;99.90;;;;;;4962835;28;20368;-86
2023/12/04 03:42:27;;;;;;;34.50;17.35;;;-0.20;99.90;;;;;;4991498;28;20046;-86
2023/12/04 03:44:53;;;;;;;31.83;16.55;;;-0.10;99.90;;;;;;4976732;28;20496;-86
2023/12/04 03:47:18;;;;;;;32.95;16.10;;;0.70;99.90;;;;;;4989502;28;20069;-86
2023/12/04 03:49:44;;;;;;;32.13;16.52;;;0.90;99.90;;;;;;4978653;28;20043;-85
2023/12/04 03:52:10;;;;;;;35.15;17.02;;;-0.10;99.90;;;;;;4962409;28;20043;-86
2023/12/04 03:54:35;;;;;;;32.50;15.98;;;-0.10;99.90;;;;;;4975231;28;20110;-87
2023/12/04 03:57:02;;;;;;;30.63;16.85;;;-0.10;99.90;;;;;;4975581;28;20039;-88
2023/12/04 03:59:27;;;;;;;32.28;16.92;;;1.10;99.90;;;;;;4959461;28;20049;-87
2023/12/04 04:01:53;;;;;;;30.33;15.38;;;-0.10;99.90;;;;;;4975308;28;20046;-86
2023/12/04 04:04:18;;;;;;;33.35;17.67;;;1.20;99.90;;;;;;4975470;28;20097;-86
2023/12/04 04:06:44;;;;;;;31.45;16.73;;;-0.10;99.90;;;;;;4978181;28;20359;-90
2023/12/04 04:09:10;;;;;;;31.33;17.00;;;-0.10;99.90;;;;;;4974870;28;20087;-88
2023/12/04 04:11:35;;;;;;;30.92;16.02;;;0.00;99.90;;;;;;4975296;28;20085;-87
2023/12/04 04:14:01;;;;;;;33.75;16.85;;;0.00;99.90;;;;;;4974948;28;20467;-86
2023/12/04 04:16:27;;;;;;;32.42;17.05;;;0.00;99.90;;;;;;4976503;28;20078;-87
2023/12/04 04:18:52;;;;;;;32.95;16.15;;;-0.70;99.90;;;;;;4976231;28;20510;-86
2023/12/04 04:21:18;;;;;;;35.35;17.02;;;0.80;99.90;;;;;;4991364;28;20093;-86
2023/12/04 04:23:44;;;;;;;30.98;16.52;;;0.40;99.90;;;;;;4997855;28;20446;-88
2023/12/04 04:26:09;;;;;;;36.67;16.65;;;0.60;99.90;;;;;;4997848;28;20041;-85
2023/12/04 04:28:35;;;;;;;33.97;16.83;;;0.50;99.90;;;;;;5015205;28;20104;-85
2023/12/04 04:31:01;;;;;;;32.53;16.10;;;0.30;99.90;;;;;;4997635;28;20041;-87
2023/12/04 04:33:27;;;;;;;33.97;15.80;;;0.10;99.90;;;;;;5015433;28;20069;-85
2023/12/04 04:35:53;;;;;;;34.42;16.77;;;0.30;99.90;;;;;;4984213;28;20467;-86
2023/12/04 04:38:18;;;;;;;36.67;16.92;;;0.00;99.90;;;;;;4971647;28;20053;-86
2023/12/04 04:40:44;;;;;;;30.55;16.90;;;0.00;99.90;;;;;;4997096;28;20104;-85
2023/12/04 04:43:13;;;;;;;34.60;16.83;;;0.00;99.90;;;;;;4997259;28;20041;-85
2023/12/04 04:45:38;;;;;;;34.88;16.27;;;0.00;99.90;;;;;;4997337;28;20129;-85
2023/12/04 04:48:04;;;;;;;34.78;16.80;;;0.10;99.90;;;;;;4980806;28;20554;-85
2023/12/04 04:50:30;;;;;;;34.65;17.27;;;0.00;99.90;;;;;;4980658;28;20045;-85
2023/12/04 04:52:56;;;;;;;32.80;15.77;;;0.80;99.90;;;;;;5014569;28;20164;-85
2023/12/04 04:55:21;;;;;;;32.50;16.50;;;1.80;99.90;;;;;;4996588;28;20046;-85
2023/12/04 04:57:47;;;;;;;33.05;15.63;;;-0.50;99.90;;;;;;5014228;28;20575;-84
2023/12/04 05:00:13;;;;;;;30.63;15.68;;;-0.10;99.90;;;;;;4996820;28;20042;-85
2023/12/04 05:02:38;;;;;;;32.08;17.17;;;0.10;99.90;;;;;;4980518;28;20037;-85
2023/12/04 05:05:06;;;;;;;35.67;16.60;;;0.00;99.90;;;;;;4996164;28;20049;-85
2023/12/04 05:07:32;;;;;;;34.58;16.70;;;0.10;99.90;;;;;;4995725;28;20068;-85
2023/12/04 05:09:57;;;;;;;30.42;15.43;;;0.30;99.90;;;;;;5014157;28;20044;-85
2023/12/04 05:12:23;;;;;;;34.55;16.23;;;1.10;99.90;;;;;;4996766;28;20040;-85
2023/12/04 05:14:49;;;;;;;35.38;16.48;;;0.10;99.90;;;;;;4996249;28;20109;-85
2023/12/04 05:17:14;;;;;;;30.17;14.70;;;0.60;99.90;;;;;;4996168;28;20041;-85
2023/12/04 05:19:40;;;;;;;31.15;15.82;;;0.10;99.90;;;;;;5013365;28;20042;-85
2023/12/04 05:22:06;;;;;;;29.83;15.70;;;1.10;99.90;;;;;;4996467;28;20108;-85
2023/12/04 05:24:32;;;;;;;31.20;15.48;;;1.00;99.90;;;;;;4980393;28;20038;-85
2023/12/04 05:26:58;;;;;;;33.88;15.85;;;0.20;99.90;;;;;;4996237;28;20050;-85
2023/12/04 05:29:24;;;;;;;30.63;15.02;;;1.10;99.90;;;;;;4995967;28;20081;-85
2023/12/04 05:31:49;;;;;;;33.33;16.33;;;-0.80;99.90;;;;;;4996059;28;20533;-85
2023/12/04 05:34:15;;;;;;;30.52;14.93;;;0.10;99.90;;;;;;4996188;28;20118;-85
2023/12/04 05:36:41;;;;;;;30.83;15.40;;;0.50;99.90;;;;;;4979800;28;20054;-85
2023/12/04 05:39:07;;;;;;;32.03;15.82;;;0.00;99.90;;;;;;4995807;28;20129;-85
2023/12/04 05:41:32;;;;;;;30.38;15.88;;;0.90;99.90;;;;;;4979213;28;20042;-85
2023/12/04 05:43:58;;;;;;;30.38;15.45;;;0.00;99.90;;;;;;4996158;28;20104;-85
2023/12/04 05:46:24;;;;;;;30.33;15.25;;;0.00;99.90;;;;;;4995867;28;20053;-85
2023/12/04 05:48:49;;;;;;;29.98;15.07;;;-0.10;99.90;;;;;;4995741;28;20052;-85
2023/12/04 05:51:15;;;;;;;32.33;14.90;;;1.00;99.90;;;;;;4996013;28;20038;-85
2023/12/04 05:53:41;;;;;;;30.80;15.57;;;0.00;99.90;;;;;;4995918;28;20045;-85
2023/12/04 05:56:08;;;;;;;33.45;15.32;;;0.70;99.90;;;;;;4979348;28;20046;-86
2023/12/04 05:58:35;;;;;;;30.75;16.10;;;0.00;99.90;;;;;;5011626;28;20038;-85
2023/12/04 06:01:00;;;;;;;25.50;14.05;;;0.00;99.90;;;;;;4992112;28;20487;-85
2023/12/04 06:03:26;;;;;;;29.65;15.13;;;0.20;99.90;;;;;;4992276;28;20053;-86
2023/12/04 06:05:52;;;;;;;31.98;15.13;;;0.00;99.90;;;;;;4992452;28;20108;-86
2023/12/04 06:08:17;;;;;;;34.67;16.25;;;0.00;99.90;;;;;;4995402;28;20135;-86
2023/12/04 06:10:43;;;;;;;38.63;16.73;;;0.10;99.90;;;;;;4995405;28;20395;-86
2023/12/04 06:13:09;;;;;;;34.55;16.63;;;0.70;99.90;;;;;;4979310;28;20042;-86
2023/12/04 06:15:35;;;;;;;35.17;15.02;;;0.00;99.90;;;;;;5012577;28;20042;-85
2023/12/04 06:18:00;;;;;;;31.70;15.43;;;0.00;99.90;;;;;;4994953;28;20046;-87
2023/12/04 06:20:26;;;;;;;30.48;15.35;;;0.10;99.90;;;;;;5012710;28;20052;-87
2023/12/04 06:22:52;;;;;;;30.60;15.75;;;0.70;99.90;;;;;;4994998;28;20038;-86
2023/12/04 06:25:18;;;;;;;29.20;14.38;;;0.00;99.90;;;;;;4995581;28;20097;-85
2023/12/04 06:27:44;;;;;;;28.75;14.65;;;0.00;99.90;;;;;;5011652;28;20042;-86
2023/12/04 06:30:10;;;;;;;33.08;15.55;;;0.00;99.90;;;;;;5010662;28;20509;-85
2023/12/04 06:32:36;;;;;;;32.03;15.27;;;0.00;99.90;;;;;;4993245;28;20060;-85
2023/12/04 06:35:03;;;;;;;30.15;15.30;;;0.00;99.90;;;;;;4978600;28;20038;-86
2023/12/04 06:37:29;;;;;;;31.83;16.60;;;;;;;;;;4995517;28;20099;-85
2023/12/04 06:39:59;;;;;;;28.70;14.32;;;0.00;99.90;;;;;;4995491;28;20081;-87
2023/12/04 06:42:25;;;;;;;31.10;15.48;;;2.10;99.90;;;;;;4994348;28;20038;-86
2023/12/04 06:44:51;;;;;;;28.75;15.05;;;0.00;99.90;;;;;;4978552;28;20541;-85
2023/12/04 06:47:20;;;;;;;32.83;15.13;;;-0.40;99.90;;;;;;4994957;28;20372;-85
2023/12/04 06:49:46;;;;;;;30.02;14.93;;;0.00;99.90;;;;;;4975603;28;20129;-86
2023/12/04 06:52:11;;;;;;;33.78;15.20;;;0.10;99.90;;;;;;4991817;28;20062;-86
2023/12/04 06:54:37;;;;;;;32.45;15.05;;;0.00;99.90;;;;;;4993235;28;20042;-85
2023/12/04 06:57:03;;;;;;;32.53;14.82;;;-0.30;99.90;;;;;;4991937;28;20078;-85
2023/12/04 06:59:29;;;;;;;30.73;15.15;;;0.00;99.90;;;;;;4991478;28;20049;-85
2023/12/04 07:01:55;;;;;;;30.60;15.30;;;-0.10;99.90;;;;;;4992853;28;20118;-86
2023/12/04 07:04:21;;;;;;;29.20;14.70;;;0.10;99.90;;;;;;4994698;28;20132;-85
2023/12/04 07:06:48;;;;;;;31.88;15.40;;;0.90;99.90;;;;;;4995287;28;20127;-85
2023/12/04 07:09:14;;;;;;;31.27;14.93;;;1.00;99.90;;;;;;5012480;28;20130;-86
2023/12/04 07:11:40;;;;;;;35.85;15.75;;;0.00;99.90;;;;;;4995090;28;20478;-85
2023/12/04 07:14:06;;;;;;;31.70;15.80;;;0.70;99.90;;;;;;5012465;28;20126;-85
2023/12/04 07:16:39;;;;;;;29.08;14.38;;;1.20;99.90;;;;;;4978901;28;20046;-84
2023/12/04 07:19:05;;;;;;;27.38;13.40;;;0.00;99.90;;;;;;4994729;28;20056;-85
2023/12/04 07:21:31;;;;;;;29.63;14.98;;;0.60;99.90;;;;;;4994912;28;20050;-86
2023/12/04 07:23:56;;;;;;;27.27;13.82;;;0.00;99.90;;;;;;4994401;28;20058;-85
2023/12/04 07:26:22;;;;;;;28.20;14.63;;;0.60;99.90;;;;;;4994727;28;20041;-85
2023/12/04 07:28:48;;;;;;;26.02;13.95;;;-0.10;99.90;;;;;;4994908;28;20050;-86
2023/12/04 07:31:14;;;;;;;27.65;14.63;;;0.70;99.90;;;;;;4978660;28;20046;-85
2023/12/04 07:33:39;;;;;;;27.90;13.23;;;0.10;99.90;;;;;;4978838;28;20046;-86
2023/12/04 07:36:05;;;;;;;31.45;13.95;;;-0.10;99.90;;;;;;5011890;28;20048;-85
2023/12/04 07:38:31;;;;;;;25.10;13.13;;;0.00;99.90;;;;;;5012277;28;20523;-85
2023/12/04 07:40:57;;;;;;;27.75;14.65;;;1.00;99.90;;;;;;4994666;28;20121;-85
2023/12/04 07:43:22;;;;;;;25.75;12.85;;;-0.10;99.90;;;;;;4997275;28;20104;-86
2023/12/04 07:45:48;;;;;;;27.33;13.52;;;0.00;99.90;;;;;;5002581;28;20446;-85
2023/12/04 07:48:14;;;;;;;22.88;13.07;;;0.00;99.90;;;;;;4997756;28;20099;-86
2023/12/04 07:50:40;;;;;;;26.65;13.40;;;1.20;99.90;;;;;;4981393;28;20398;-89
2023/12/04 07:53:07;;;;;;;25.85;13.27;;;0.90;99.90;;;;;;5016188;28;20052;-87
2023/12/04 07:55:33;;;;;;;27.05;13.05;;;-0.10;99.90;;;;;;5014132;28;20042;-88
2023/12/04 07:57:59;;;;;;;25.05;13.50;;;-0.10;99.90;;;;;;4976597;28;20053;-86
2023/12/04 08:00:26;;;;;;;24.98;13.48;;;0.90;99.90;;;;;;4997053;28;20154;-87
2023/12/04 08:02:51;;;;;;;27.45;13.77;;;0.30;99.90;;;;;;5014639;28;20049;-85
2023/12/04 08:05:17;;;;;;;27.50;14.23;;;-0.50;99.90;;;;;;4998133;28;20051;-88
2023/12/04 08:07:43;;;;;;;25.77;12.98;;;0.00;99.90;;;;;;4977218;28;20438;-86
2023/12/04 08:10:09;;;;;;;25.90;13.73;;;-0.40;99.90;;;;;;4997797;28;20494;-86
2023/12/04 08:12:34;;;;;;;26.13;13.07;;;-0.10;99.90;;;;;;4981737;28;20112;-86
2023/12/04 08:15:01;;;;;;;25.65;13.88;;;1.80;99.90;;;;;;4995735;28;20494;-85
2023/12/04 08:17:27;;;;;;;25.42;12.40;;;0.80;99.90;;;;;;5011970;28;20398;-86
2023/12/04 08:19:54;;;;;;;25.95;12.80;;;0.10;99.90;;;;;;4996968;28;20042;-86
2023/12/04 08:22:20;;;;;;;24.48;12.48;;;0.40;99.90;;;;;;5014868;28;20141;-86
2023/12/04 08:24:45;;;;;;;26.98;12.48;;;0.00;99.90;;;;;;4997517;28;20145;-85
2023/12/04 08:27:11;;;;;;;23.40;12.38;;;0.10;99.90;;;;;;4997181;28;20046;-85
2023/12/04 08:29:39;;;;;;;23.33;12.18;;;0.30;99.90;;;;;;4997725;28;20088;-85
2023/12/04 08:32:05;;;;;;;25.45;12.05;;;1.40;99.90;;;;;;4997130;28;20046;-86
2023/12/04 08:34:31;;;;;;;26.42;12.00;;;0.20;99.90;;;;;;4980491;28;20057;-86
2023/12/04 08:36:56;;;;;;;22.10;11.70;;;0.20;99.90;;;;;;4995373;28;20132;-85
2023/12/04 08:39:22;;;;;;;24.38;12.50;;;0.20;99.90;;;;;;5003813;28;20125;-85
2023/12/04 08:41:48;;;;;;;28.17;13.30;;;0.20;99.90;;;;;;4997041;28;20071;-87
2023/12/04 08:44:14;;;;;;;24.65;12.10;;;0.30;99.90;;;;;;5013791;28;20026;-86
2023/12/04 08:46:40;;;;;;;22.42;12.05;;;0.30;99.90;;;;;;5014634;28;20121;-86
2023/12/04 08:49:06;;;;;;;21.00;11.02;;;-0.10;99.90;;;;;;5001971;28;20149;-86
2023/12/04 08:51:31;;;;;;;19.63;11.20;;;0.80;99.90;;;;;;4978548;28;20503;-85
2023/12/04 08:53:57;;;;;;;19.38;10.88;;;1.20;99.90;;;;;;4995769;28;20033;-85
2023/12/04 08:56:23;;;;;;;20.27;11.00;;;0.30;99.90;;;;;;4980954;28;20096;-85
2023/12/04 08:58:50;;;;;;;20.17;11.45;;;2.40;99.90;;;;;;4995753;28;20072;-86
2023/12/04 09:01:16;;;;;;;21.25;11.68;;;0.40;99.90;;;;;;4990361;28;20113;-85
2023/12/04 09:03:42;;;;;;;20.33;9.93;;;0.50;99.90;;;;;;4996503;28;20176;-85
2023/12/04 09:06:08;;;;;;;24.63;11.63;;;0.40;99.90;;;;;;4995342;28;20125;-85
2023/12/04 09:08:34;;;;;;;20.13;10.07;;;0.40;99.90;;;;;;4980415;28;20046;-84
2023/12/04 09:11:00;;;;;;;18.55;10.27;;;0.90;99.90;;;;;;4996816;28;20081;-86
2023/12/04 09:13:26;;;;;;;30.85;10.65;;;1.00;99.90;;;;;;5009499;28;20073;-85
2023/12/04 09:15:52;;;;;;;20.02;9.93;;;-0.10;99.90;;;;;;4979722;28;20096;-86
2023/12/04 09:18:18;;;;;;;21.35;11.13;;;1.20;99.90;;;;;;5013769;28;20060;-86
2023/12/04 09:20:44;;;;;;;25.33;10.75;;;0.50;99.90;;;;;;4996585;28;20410;-86
2023/12/04 09:23:09;;;;;;;19.02;10.00;;;0.50;99.90;;;;;;4978541;28;20046;-86
2023/12/04 09:25:36;;;;;;;24.65;11.23;;;1.10;99.90;;;;;;4996378;28;20065;-87
2023/12/04 09:28:02;;;;;;;19.23;10.32;;;1.50;99.90;;;;;;5014314;28;20105;-85
2023/12/04 09:30:28;;;;;;;20.27;9.75;;;0.90;99.90;;;;;;4994179;28;20482;-85
2023/12/04 09:32:54;;;;;;;17.48;9.68;;;0.60;99.90;;;;;;4996542;28;20403;-85
2023/12/04 09:35:19;;;;;;;16.17;9.00;;;1.00;99.90;;;;;;4976249;28;20057;-87
2023/12/04 09:37:45;;;;;;;18.10;10.15;;;0.60;99.90;;;;;;4995478;28;20041;-86
2023/12/04 09:40:12;;;;;;;19.52;10.27;;;0.50;99.90;;;;;;5013482;28;20061;-85
2023/12/04 09:42:39;;;;;;;18.05;9.63;;;0.70;99.90;;;;;;4995928;28;20058;-86
2023/12/04 09:45:07;;;;;;;17.58;9.68;;;0.60;99.90;;;;;;4996028;28;20046;-85
2023/12/04 09:47:34;;;;;;;16.75;9.10;;;0.70;99.90;;;;;;5013653;28;20057;-84
2023/12/04 09:50:00;;;;;;;18.55;9.63;;;0.60;99.90;;;;;;5027042;28;20038;-85
2023/12/04 09:52:28;;;;;;;20.35;9.45;;;0.60;99.90;;;;;;4995831;28;20049;-85
2023/12/04 09:54:53;;;;;;;16.65;9.05;;;0.60;99.90;;;;;;5013761;28;20040;-85
2023/12/04 09:57:21;;;;;;;17.90;8.20;;;0.70;99.90;;;;;;5012731;28;20398;-84
2023/12/04 09:59:48;;;;;;;17.05;8.85;;;0.60;99.90;;;;;;4980351;28;20137;-87
2023/12/04 10:02:14;;;;;;;19.35;9.23;;;1.30;99.90;;;;;;4992662;28;20042;-84
2023/12/04 10:04:41;;;;;;;16.25;8.52;;;1.30;99.90;;;;;;4993530;28;20434;-84
2023/12/04 10:07:06;;;;;;;16.08;8.60;;;0.70;99.90;;;;;;5002444;28;20042;-85
2023/12/04 10:09:32;;;;;;;18.85;8.27;;;1.60;99.90;;;;;;5011990;28;20050;-85
2023/12/04 10:11:58;;;;;;;18.58;9.02;;;1.50;99.90;;;;;;4979189;28;20046;-85
2023/12/04 10:14:25;;;;;;;15.50;8.13;;;0.80;99.90;;;;;;4979342;28;20483;-84
2023/12/04 10:16:53;;;;;;;16.50;9.02;;;1.20;99.90;;;;;;4995526;28;20454;-83
2023/12/04 10:27:30;;;;;;;13.70;7.22;;;1.00;99.90;;;;;;5012547;28;20064;-85
2023/12/04 10:29:58;;;;;;;18.45;9.02;;;1.20;99.90;;;;;;4979442;28;20049;-84
2023/12/04 10:32:23;;;;;;;17.10;8.32;;;1.40;99.90;;;;;;5002458;28;20046;-84
2023/12/04 10:34:50;;;;;;;18.67;8.10;;;1.10;99.90;;;;;;4992017;28;20104;-85
2023/12/04 10:37:16;;;;;;;15.00;7.70;;;0.10;99.90;;;;;;4995104;28;20029;-85
2023/12/04 10:39:48;;;;;;;16.33;7.65;;;1.80;99.90;;;;;;4995062;28;20049;-86
2023/12/04 10:42:26;;;;;;;14.50;7.78;;;1.50;99.90;;;;;;4978297;28;20041;-84
2023/12/04 10:44:55;;;;;;;14.27;7.72;;;1.40;99.90;;;;;;4995026;28;20054;-84
2023/12/04 10:47:22;;;;;;;12.63;7.70;;;3.00;99.90;;;;;;4995141;28;20068;-85
2023/12/04 10:49:51;;;;;;;12.90;7.05;;;1.90;99.90;;;;;;4995010;28;20049;-85
2023/12/04 10:52:19;;;;;;;16.08;8.25;;;1.40;99.90;;;;;;4994795;28;20614;-84
2023/12/04 10:54:48;;;;;;;14.27;7.85;;;1.50;99.90;;;;;;4995015;28;20085;-84
2023/12/04 10:57:25;;;;;;;17.90;8.75;;;1.90;99.90;;;;;;4994685;28;20402;-85
2023/12/04 10:59:55;;;;;;;13.93;7.43;;;1.50;99.90;;;;;;4996691;28;20081;-85
2023/12/04 11:02:26;;;;;;;15.70;7.07;;;1.60;99.90;;;;;;4993492;28;20126;-85
2023/12/04 11:04:55;;;;;;;13.98;7.40;;;1.60;99.90;;;;;;5011534;28;20038;-85
2023/12/04 11:07:23;;;;;;;13.30;7.45;;;1.50;99.90;;;;;;4977553;28;20129;-87
2023/12/04 11:09:50;;;;;;;17.02;8.43;;;1.60;99.90;;;;;;4994035;28;20454;-86
2023/12/04 11:12:18;;;;;;;18.92;8.25;;;1.60;99.90;;;;;;4993923;28;20029;-85
2023/12/04 11:14:49;;;;;;;14.05;8.00;;;1.60;99.90;;;;;;4986227;28;20046;-85
2023/12/04 11:17:17;;;;;;;11.88;6.95;;;2.40;99.90;;;;;;5007576;28;20506;-87
2023/12/04 11:19:51;;;;;;;13.60;7.95;;;2.20;99.90;;;;;;4989450;28;20057;-85
2023/12/04 11:22:20;;;;;;;13.95;7.75;;;1.50;99.90;;;;;;4980960;28;20451;-86
2023/12/04 11:24:48;;;;;;;14.70;7.65;;;2.40;99.90;;;;;;4989546;28;20114;-86
2023/12/04 11:27:19;;;;;;;16.02;8.05;;;1.50;99.90;;;;;;4997191;28;20057;-85
2023/12/04 11:29:46;;;;;;;19.10;8.73;;;1.50;99.90;;;;;;4997527;28;20034;-84
2023/12/04 11:32:16;;;;;;;15.95;7.85;;;2.30;99.90;;;;;;5015617;28;20128;-85
2023/12/04 11:34:54;;;;;;;14.98;7.95;;;2.00;99.90;;;;;;4993998;28;20513;-83
2023/12/04 11:37:21;;;;;;;12.18;7.13;;;1.90;99.90;;;;;;4998434;28;20487;-83
2023/12/04 11:39:50;;;;;;;13.10;7.03;;;1.90;99.90;;;;;;4998638;28;20050;-83
2023/12/04 11:42:23;;;;;;;12.35;7.32;;;1.80;99.90;;;;;;4998606;28;20406;-83
2023/12/04 11:44:49;;;;;;;13.50;6.68;;;1.60;99.90;;;;;;4982166;28;20088;-83
2023/12/04 11:47:15;;;;;;;13.23;7.63;;;1.60;99.90;;;;;;4997761;28;20516;-83
2023/12/04 11:49:41;;;;;;;15.82;8.05;;;2.30;99.90;;;;;;4998018;28;20041;-84
2023/12/04 11:52:07;;;;;;;14.13;7.47;;;2.20;99.90;;;;;;4998196;28;20056;-83
2023/12/04 11:54:56;;;;;;;13.50;7.45;;;1.70;99.90;;;;;;4998066;28;20046;-84
2023/12/04 11:57:25;;;;;;;15.15;7.97;;;1.70;99.90;;;;;;4998136;28;20426;-84
2023/12/04 11:59:52;;;;;;;12.20;7.32;;;2.40;99.90;;;;;;4998122;28;20453;-86
2023/12/04 12:02:18;;;;;;;12.45;7.15;;;2.30;99.90;;;;;;5015114;28;20049;-84
2023/12/04 12:04:47;;;;;;;15.38;8.07;;;2.70;99.90;;;;;;4996059;28;20124;-84
2023/12/04 12:07:14;;;;;;;14.38;7.05;;;1.90;99.90;;;;;;4998346;28;20045;-84
2023/12/04 12:09:41;;;;;;;11.90;6.80;;;1.80;99.90;;;;;;4998183;28;20048;-84
2023/12/04 12:12:07;;;;;;;13.38;7.30;;;2.50;99.90;;;;;;5015417;28;20042;-84
2023/12/04 12:14:32;;;;;;;12.68;7.50;;;1.80;99.90;;;;;;4997682;28;20057;-84
2023/12/04 12:17:00;;;;;;;12.93;6.72;;;2.80;99.90;;;;;;4997665;28;20038;-86
2023/12/04 12:19:25;;;;;;;11.07;6.70;;;2.60;99.90;;;;;;4997563;28;20076;-84
2023/12/04 12:21:51;;;;;;;12.35;7.22;;;2.30;99.90;;;;;;4997557;28;20041;-86
2023/12/04 12:24:18;;;;;;;14.00;7.43;;;2.00;99.90;;;;;;4998011;28;20042;-84
2023/12/04 12:26:44;;;;;;;12.00;7.00;;;2.30;99.90;;;;;;4992539;28;20054;-84
2023/12/04 12:29:11;;;;;;;10.95;6.30;;;0.90;99.90;;;;;;4997550;28;20053;-84
2023/12/04 12:31:36;;;;;;;12.20;6.35;;;1.70;99.90;;;;;;4997526;28;20052;-84
2023/12/04 12:34:02;;;;;;;11.38;7.28;;;1.20;99.90;;;;;;4997418;28;20042;-84
2023/12/04 12:36:29;;;;;;;13.80;7.40;;;2.70;99.90;;;;;;5014044;28;20038;-84
2023/12/04 12:38:56;;;;;;;12.57;6.45;;;1.90;99.90;;;;;;4996495;28;20050;-84
2023/12/04 12:41:21;;;;;;;14.40;6.50;;;1.90;99.90;;;;;;4996963;28;20041;-84